Latest Weather Observations for Tamworth Airport

IDN60801

Issued at 12:03 pm EST Sunday 28 August 2016 (issued every 30 minutes, with the page automatically refreshed every 10 minutes)

About weather observations | Map of weather stations | Latest weather observations for NSW | Other Formats
Station Details ID: 055325 Name: TAMWORTH AIRPORT AWS Lat: -31.07 Lon: 150.84 Height: 394.9 m
Data from the previous 72 hours. | See also: Recent months at Tamworth Airport
Date/Time
EST
Temp
°C
App
Temp
°C
Dew
Point
°C
Rel
Hum
%
Delta-T
°C
Wind Press
QNH
hPa
Press
MSL
hPa
Rain since
9am
mm
Dir  Spd
km/h
Gust
km/h
Spd
kts
Gust
kts
28/12:00pm 14.9 11.8 5.7 54 4.5 NW 11 19 6 10 1024.4 1024.6 0.0
28/11:30am 14.0 11.7 5.6 57 4.0 N 7 13 4 7 1024.7 1024.9 0.0
28/11:00am 12.7 9.8 4.7 58 3.7 NNW 9 13 5 7 1025.1 1025.3 0.0
28/10:30am 13.1 11.0 5.8 61 3.5 ENE 6 9 3 5 1025.5 1025.7 0.0
28/10:00am 11.3 8.9 4.5 63 3.1 NNE 6 9 3 5 1025.5 1025.7 0.0
28/09:30am 9.5 7.1 4.5 71 2.3 S 6 11 3 6 1025.7 1026.0 0.0
28/09:00am 8.8 6.5 5.0 77 1.7 SE 6 9 3 5 1025.8 1026.1 0.0
28/08:30am 7.9 5.7 5.4 84 1.1 ESE 6 9 3 5 1025.7 1026.0 0.0
28/08:00am 6.1 5.0 4.9 92 0.5 CALM 0 6 0 3 1025.8 1026.1 0.0
28/07:57am 5.7 4.5 4.5 92 0.5 CALM 0 0 0 0 1025.8 1026.1 0.0
28/07:55am 5.5 4.2 4.3 92 0.5 CALM 0 0 0 0 1025.8 1026.1 0.0
28/07:36am 3.2 1.5 2.0 92 0.5 CALM 0 0 0 0 1025.6 1025.8 0.0
28/07:30am 2.6 0.8 1.4 92 0.5 CALM 0 0 0 0 1025.5 1025.7 0.0
28/07:00am 0.5 -2.7 -0.6 92 0.4 SE 6 7 3 4 1025.0 1025.2 0.0
28/06:30am -0.5 -2.7 -1.6 92 0.4 CALM 0 6 0 3 1024.8 1025.0 0.0
28/06:00am -0.8 -4.2 -1.9 92 0.3 SSW 6 7 3 4 1024.4 1024.6 0.0
28/05:30am -0.6 -4.0 -1.9 91 0.4 SE 6 7 3 4 1024.2 1024.4 0.0
28/05:00am -0.5 -3.9 -1.8 91 0.4 SE 6 7 3 4 1024.1 1024.3 0.0
28/04:30am -0.2 -2.4 -1.6 90 0.5 CALM 0 0 0 0 1023.8 1024.0 0.0
28/04:00am 1.7 -0.2 0.4 91 0.5 CALM 0 0 0 0 1023.6 1023.8 0.0
28/03:30am 1.3 -0.7 0.0 91 0.5 CALM 0 0 0 0 1023.2 1023.4 0.0
28/03:00am 1.9 0.0 0.6 91 0.5 CALM 0 0 0 0 1023.1 1023.3 0.0
28/02:30am 1.3 -0.7 -0.3 89 0.6 CALM 0 0 0 0 1023.5 1023.6 0.0
28/02:00am 1.6 -1.1 0.0 89 0.6 E 4 7 2 4 1023.7 1023.9 0.0
28/01:51am 1.9 -1.2 0.3 89 0.6 E 6 9 3 5 1023.7 1023.9 0.0
28/01:30am 2.3 -0.7 0.7 89 0.6 SE 6 9 3 5 1023.8 1024.0 0.0
28/01:06am 3.0 0.1 1.4 89 0.6 SE 6 7 3 4 1023.8 1024.0 0.0
28/01:00am 2.8 -0.3 1.2 89 0.6 SE 7 7 4 4 1023.9 1024.1 0.0
28/12:30am 3.3 0.3 1.7 89 0.6 ENE 7 9 4 5 1023.9 1024.1 0.0
28/12:29am 3.3 0.3 1.7 89 0.6 ENE 7 9 4 5 1023.9 1024.1 0.0
28/12:00am 3.3 1.5 0.9 84 0.9 CALM 0 9 0 5 1024.1 1024.3 0.0
 
Date/Time
EST
Temp
°C
App
Temp
°C
Dew
Point
°C
Rel
Hum
%
Delta-T
°C
Wind Press
QNH
hPa
Press
MSL
hPa
Rain since
9am
mm
Dir  Spd
km/h
Gust
km/h
Spd
kts
Gust
kts
27/11:30pm 6.0 4.8 4.6 91 0.6 CALM 0 0 0 0 1023.7 1023.9 0.0
27/11:00pm 4.2 2.6 2.7 90 0.6 CALM 0 0 0 0 1023.6 1023.8 0.0
27/10:51pm 4.1 2.5 2.5 89 0.7 CALM 0 0 0 0 1023.2 1023.4 0.0
27/10:30pm 3.4 1.6 1.3 86 0.8 CALM 0 0 0 0 1023.3 1023.5 0.0
27/10:26pm 3.1 1.2 0.5 83 1.0 CALM 0 0 0 0 1023.3 1023.5 0.0
27/10:00pm 5.2 3.5 2.0 80 1.3 CALM 0 0 0 0 1023.3 1023.5 0.0
27/09:30pm 6.4 5.1 4.1 85 1.0 CALM 0 0 0 0 1023.2 1023.4 0.0
27/09:00pm 6.1 4.4 3.8 85 1.0 WNW 2 9 1 5 1023.2 1023.4 0.0
27/08:30pm 7.8 4.9 4.6 80 1.4 NNE 9 11 5 6 1022.9 1023.1 0.0
27/08:00pm 8.0 5.1 4.6 79 1.5 NE 9 11 5 6 1022.9 1023.1 0.0
27/07:30pm 7.9 5.2 3.9 76 1.8 NE 7 9 4 5 1022.9 1023.1 0.0
27/07:00pm 9.9 7.5 5.1 72 2.2 WSW 7 9 4 5 1022.7 1022.9 0.0
27/06:30pm 9.9 7.4 4.9 71 2.3 WNW 7 9 4 5 1022.3 1022.5 0.0
27/06:00pm 10.9 8.0 4.6 65 2.9 W 9 11 5 6 1022.0 1022.2 0.0
27/05:30pm 12.1 8.9 5.3 63 3.2 W 11 13 6 7 1021.7 1021.9 0.0
27/05:00pm 14.7 11.5 5.2 53 4.6 W 11 15 6 8 1021.4 1021.5 0.0
27/04:30pm 15.6 11.6 4.9 49 5.2 W 15 19 8 10 1021.1 1021.2 0.0
27/04:00pm 15.9 12.6 4.6 47 5.4 WSW 11 17 6 9 1020.8 1020.9 0.0
27/03:30pm 15.4 13.0 4.2 47 5.3 S 6 9 3 5 1020.8 1020.9 0.0
27/03:00pm 15.8 14.1 6.0 52 4.8 SW 4 11 2 6 1021.0 1021.1 0.0
27/02:30pm 15.4 12.1 4.8 49 5.1 SW 11 19 6 10 1021.2 1021.3 0.0
27/02:00pm 14.6 11.1 5.4 54 4.4 SSW 13 20 7 11 1021.6 1021.8 0.0
27/01:30pm 14.6 12.0 4.0 49 5.0 S 7 15 4 8 1021.9 1022.1 0.0
27/01:00pm 14.8 11.9 4.5 50 4.9 SSW 9 17 5 9 1022.2 1022.4 0.0
27/12:30pm 14.2 11.2 3.9 50 4.8 SSW 9 17 5 9 1022.5 1022.7 0.0
27/12:00pm 14.4 11.2 5.0 53 4.5 SE 11 17 6 9 1022.7 1022.9 0.0
27/11:30am 13.2 10.8 5.1 58 3.8 WSW 7 13 4 7 1023.0 1023.2 0.0
27/11:00am 12.3 10.0 4.8 60 3.5 NW 6 9 3 5 1023.3 1023.5 0.0
27/10:30am 11.7 9.5 5.1 64 3.1 SSW 6 7 3 4 1023.6 1023.8 0.0
27/10:00am 10.5 7.9 4.4 66 2.8 NW 7 11 4 6 1023.6 1023.8 0.0
27/09:30am 8.9 6.8 4.1 72 2.2 NNW 4 9 2 5 1023.7 1023.9 0.0
27/09:00am 7.5 4.7 3.4 75 1.8 NNW 7 11 4 6 1024.0 1024.2 0.0
27/08:30am 6.3 4.9 3.5 82 1.2 CALM 0 0 0 0 1023.8 1024.0 0.0
27/08:00am 4.3 1.5 2.0 85 0.9 ENE 6 7 3 4 1023.6 1023.8 0.0
27/07:41am 3.3 1.2 1.8 90 0.6 NE 2 7 1 4 1023.1 1023.3 0.0
27/07:30am 2.0 -1.6 0.5 90 0.6 NE 9 9 5 5 1022.9 1023.1 0.0
27/07:20am 1.6 -2.1 0.0 89 0.6 NE 9 11 5 6 1022.7 1022.9 0.0
27/07:00am 1.8 -1.2 0.5 91 0.5 SE 6 7 3 4 1022.6 1022.8 0.0
27/06:30am 1.0 -1.0 -0.3 91 0.5 CALM 0 9 0 5 1022.1 1022.3 0.0
27/06:00am 0.6 -1.5 -0.7 91 0.5 CALM 0 0 0 0 1021.8 1022.0 0.0
27/05:30am -0.2 -3.5 -1.6 90 0.5 SSW 6 9 3 5 1021.4 1021.5 0.0
27/05:23am 0.4 -1.7 -0.9 91 0.5 CALM 0 7 0 4 1021.3 1021.4 0.0
27/05:03am 0.6 -1.5 -0.8 90 0.5 CALM 0 0 0 0 1021.1 1021.2 0.0
27/05:00am 0.4 -1.7 -1.0 90 0.5 CALM 0 0 0 0 1021.0 1021.1 0.0
27/04:30am 0.5 -2.8 -1.1 89 0.6 NNE 6 6 3 3 1021.1 1021.2 0.0
27/04:00am 0.9 -2.5 -0.7 89 0.6 SE 7 9 4 5 1020.9 1021.0 0.0
27/03:30am 0.9 -2.3 -0.5 90 0.5 W 6 7 3 4 1020.8 1020.9 0.0
27/03:00am 2.1 -0.9 0.5 89 0.6 SSE 6 9 3 5 1020.6 1020.8 0.0
27/02:30am 2.3 0.4 0.7 89 0.6 CALM 0 0 0 0 1020.5 1020.7 0.0
27/02:00am 1.9 -0.1 0.1 88 0.7 CALM 0 6 0 3 1020.9 1021.0 0.0
27/01:30am 2.1 -1.2 0.0 86 0.8 ENE 7 9 4 5 1020.9 1021.0 0.0
27/01:00am 3.1 1.3 1.2 87 0.7 CALM 0 0 0 0 1021.0 1021.1 0.0
27/12:30am 3.3 0.1 0.9 84 0.9 W 7 15 4 8 1021.2 1021.3 0.0
27/12:00am 4.1 0.6 1.5 83 1.0 SW 9 9 5 5 1021.2 1021.3 0.0
 
Date/Time
EST
Temp
°C
App
Temp
°C
Dew
Point
°C
Rel
Hum
%
Delta-T
°C
Wind Press
QNH
hPa
Press
MSL
hPa
Rain since
9am
mm
Dir  Spd
km/h
Gust
km/h
Spd
kts
Gust
kts
26/11:30pm 3.8 2.0 1.0 82 1.1 CALM 0 0 0 0 1021.1 1021.2 0.0
26/11:00pm 4.0 2.2 1.4 83 1.0 CALM 0 0 0 0 1021.2 1021.3 0.0
26/10:30pm 4.5 2.8 2.0 84 1.0 CALM 0 0 0 0 1021.1 1021.2 0.0
26/10:00pm 4.7 3.0 1.7 81 1.2 CALM 0 0 0 0 1021.1 1021.2 0.0
26/09:30pm 5.8 4.2 2.3 78 1.5 CALM 0 0 0 0 1021.0 1021.1 0.0
26/09:00pm 6.1 4.5 2.2 76 1.6 CALM 0 0 0 0 1020.9 1021.0 0.0
26/08:30pm 5.8 3.4 1.9 76 1.6 NNW 4 7 2 4 1020.6 1020.8 0.0
26/08:00pm 6.3 4.8 2.8 78 1.5 CALM 0 0 0 0 1020.4 1020.6 0.0
26/07:30pm 5.9 3.0 1.4 73 1.8 WSW 6 7 3 4 1020.3 1020.5 0.0
26/07:00pm 5.6 2.2 1.7 76 1.6 W 9 11 5 6 1019.9 1020.1 0.0
26/06:30pm 7.6 5.9 2.1 68 2.3 CALM 0 0 0 0 1019.4 1019.6 0.0
26/06:00pm 9.6 6.6 1.0 55 3.6 SSW 6 7 3 4 1019.1 1019.2 0.0
26/05:30pm 9.7 6.1 0.6 53 3.8 SSW 9 13 5 7 1018.7 1018.8 0.0
26/05:00pm 12.0 8.8 0.8 46 4.8 SW 7 11 4 6 1018.4 1018.5 0.0
26/04:30pm 12.2 8.2 0.3 44 5.0 SW 11 15 6 8 1018.2 1018.3 0.0
26/04:00pm 13.0 9.4 0.7 43 5.3 SW 9 15 5 8 1017.8 1018.0 0.0
26/03:30pm 12.5 8.9 0.9 45 5.0 SSW 9 17 5 9 1017.5 1017.7 0.0
26/03:00pm 11.3 7.2 -0.5 44 4.9 S 11 15 6 8 1017.4 1017.6 0.0
26/02:30pm 11.6 7.1 -0.5 43 5.0 WSW 13 20 7 11 1017.5 1017.7 0.0
26/02:00pm 12.3 7.6 1.0 46 4.9 SW 15 28 8 15 1017.8 1018.0 0.0
26/01:30pm 11.4 6.5 -0.4 44 4.9 WSW 15 22 8 12 1018.2 1018.3 0.0
26/01:00pm 12.0 6.8 2.7 53 4.1 SW 19 33 10 18 1018.3 1018.4 0.0
26/12:30pm 11.5 6.4 0.6 47 4.6 SSW 17 26 9 14 1018.5 1018.6 0.0
26/12:00pm 11.8 6.8 1.2 48 4.6 SW 17 28 9 15 1018.7 1018.8 0.0
26/11:30am 11.1 6.9 1.9 53 4.0 WSW 13 26 7 14 1019.3 1019.5 0.0
26/11:00am 9.4 5.1 1.1 56 3.5 W 13 17 7 9 1019.5 1019.7 0.0
26/10:30am 9.4 6.0 1.8 59 3.2 WNW 9 17 5 9 1019.6 1019.8 0.0
26/10:00am 9.0 5.7 2.3 63 2.9 NNW 9 13 5 7 1019.7 1019.9 0.0
26/09:30am 8.6 5.3 2.6 66 2.6 NNW 9 15 5 8 1019.9 1020.1 0.0
26/09:00am 7.2 4.3 2.7 73 1.9 NNW 7 11 4 6 1020.0 1020.2 0.0
26/08:30am 6.0 3.2 2.3 77 1.5 N 6 9 3 5 1019.8 1020.0 0.0
26/08:00am 5.0 2.1 1.7 79 1.3 E 6 7 3 4 1019.7 1019.9 0.0
26/07:30am 4.3 2.7 2.2 86 0.9 CALM 0 0 0 0 1019.5 1019.7 0.0
26/07:00am 1.7 -1.4 0.2 90 0.6 W 6 7 3 4 1019.1 1019.2 0.0
26/06:30am 0.5 -2.0 -1.1 89 0.6 W 2 6 1 3 1018.7 1018.8 0.0
26/06:00am 1.1 -1.0 -0.5 89 0.6 CALM 0 0 0 0 1018.4 1018.5 0.0
26/05:30am 1.4 -1.4 -0.5 87 0.7 N 4 6 2 3 1018.2 1018.3 0.0
26/05:00am 1.9 -1.3 -0.2 86 0.8 NNE 6 7 3 4 1017.7 1017.9 0.0
26/04:30am 1.8 -1.4 -0.3 86 0.8 NNW 6 7 3 4 1017.7 1017.9 0.0
26/04:00am 2.3 -1.3 0.4 87 0.7 N 9 11 5 6 1017.4 1017.6 0.0
26/03:30am 3.0 -0.6 0.9 86 0.8 NNE 9 11 5 6 1017.3 1017.5 0.0
26/03:00am 2.7 -0.6 0.4 85 0.9 NNE 7 9 4 5 1017.2 1017.4 0.0
26/02:30am 2.8 -0.8 0.5 85 0.9 NNE 9 9 5 5 1017.1 1017.3 0.0
26/02:00am 3.1 -0.1 0.5 83 1.0 N 7 9 4 5 1017.1 1017.3 0.0
26/01:30am 3.1 1.2 0.5 83 1.0 CALM 0 2 0 1 1017.3 1017.5 0.0
26/01:00am 3.6 0.4 0.7 81 1.1 NW 7 9 4 5 1017.3 1017.5 0.0
26/12:30am 4.0 0.4 0.7 79 1.3 WNW 9 13 5 7 1017.4 1017.6 0.0
26/12:00am 5.0 1.5 1.5 78 1.4 NNW 9 11 5 6 1017.2 1017.4 0.0
 
Date/Time
EST
Temp
°C
App
Temp
°C
Dew
Point
°C
Rel
Hum
%
Delta-T
°C
Wind Press
QNH
hPa
Press
MSL
hPa
Rain since
9am
mm
Dir  Spd
km/h
Gust
km/h
Spd
kts
Gust
kts
25/11:30pm 5.5 2.4 1.6 76 1.6 N 7 9 4 5 1017.2 1017.4 0.0
25/11:00pm 5.7 2.3 2.0 77 1.5 N 9 11 5 6 1017.1 1017.3 0.0
25/10:30pm 6.9 3.8 1.6 69 2.2 W 7 9 4 5 1016.9 1017.0 0.0
25/10:00pm 7.9 4.1 1.5 64 2.7 W 11 17 6 9 1016.8 1016.9 0.0
25/09:30pm 7.6 3.4 1.9 67 2.4 W 13 15 7 8 1016.7 1016.8 0.0
25/09:00pm 8.2 4.2 2.9 69 2.3 W 13 15 7 8 1016.6 1016.7 0.0
25/08:30pm 8.3 4.0 3.2 70 2.2 W 15 19 8 10 1016.5 1016.6 0.0
25/08:00pm 8.2 5.3 4.8 79 1.5 WNW 9 11 5 6 1016.3 1016.4 0.0
25/07:30pm 8.5 6.9 4.7 77 1.7 NW 2 11 1 6 1016.0 1016.1 0.0
25/07:00pm 8.4 7.1 4.0 74 2.0 CALM 0 0 0 0 1015.6 1015.7 0.0
25/06:30pm 8.8 7.0 3.6 70 2.3 NNW 2 6 1 3 1015.1 1015.3 0.0
25/06:00pm 9.7 7.1 4.3 69 2.4 NW 7 7 4 4 1014.7 1014.8 0.0
25/05:30pm 11.0 8.1 4.7 65 2.9 WNW 9 13 5 7 1014.3 1014.4 0.0
25/05:00pm 12.1 7.1 4.6 60 3.5 W 20 28 11 15 1013.9 1014.0 0.0
25/04:30pm 13.3 7.6 5.0 57 3.9 WSW 24 33 13 18 1013.4 1013.5 0.0
25/04:00pm 12.9 7.2 5.1 59 3.7 W 24 33 13 18 1013.1 1013.2 0.0
25/03:30pm 12.9 7.3 5.3 60 3.6 WSW 24 32 13 17 1013.0 1013.1 0.0
25/03:00pm 13.6 8.3 6.9 64 3.3 WNW 24 32 13 17 1012.6 1012.7 0.0
25/02:30pm 12.6 7.5 6.2 65 3.1 WNW 22 30 12 16 1012.5 1012.6 0.0
25/02:00pm 12.5 7.8 5.9 64 3.2 WNW 20 30 11 16 1012.4 1012.5 0.0
25/01:30pm 12.5 7.8 6.1 65 3.1 WNW 20 30 11 16 1012.4 1012.5 0.0
25/01:00pm 13.5 9.1 6.4 62 3.5 WNW 19 26 10 14 1012.3 1012.4 0.0
25/12:30pm 12.6 8.0 6.4 66 3.0 WNW 20 28 11 15 1012.5 1012.6 0.0

Other Formats:

Comma delimited format used in spreadsheet applications
http://www.bom.gov.au/fwo/IDN60801/IDN60801.95762.axf

JavaScript Object Notation format (JSON) in row-major order
http://www.bom.gov.au/fwo/IDN60801/IDN60801.95762.json